ザウジ の空港の天気 - METARとTAF

ザウジ・パマンジ空港 ( FMCZ / DZA ) - マヨット ザウジ
飛行場実況気象(Metar)
観測時間02/05 23:00 EAT (02/05 20:00 UTC)
風向・風速西南西 3m/s
視程10km以上
天気現象
なし
気温28℃
湿度84%
気圧1010hPa
METARFMCZ 052000Z AUTO 24005KT CAVOK 28/25 Q1010 NOSIG
過去の天気等 Google飛行場航空写真 Wunderground天気予報

過去48時間のMETAR

飛行場予報(TAF)
発表時間: -
6日10時 EAT ~ 6日12時 EAT に徐々に
風向・風速北北西 5m/s
6日11時 EAT ~ 6日19時 EAT に一時的に
視程4500m
天気現象しゅう雨
全天の4割程度の塔状積雲 雲底高度 550m
6日11時 EAT ~ 6日18時 EAT に 確率 30% で一時的に
風向・風速不定 8m/s 瞬間風速 13m/s
視程1500m
天気現象雷雨
全天の4割程度の積乱雲 雲底高度 460m
全天の8割程度の塔状積雲 雲底高度 610m

FMCZ 051700Z 0518/0618 34005KT 9999 SCT021
BECMG 0607/0609 33010KT
TEMPO 0608/0616 4500 SHRA SCT018TCU
PROB30 TEMPO 0608/0615 VRB15G25KT 1500 TSRA SCT015CB BKN020TCU